Tuesday, September 02, 2014
09:14 UTC
  |  Log In   |  Register Free
Airport Search:

Coleman Municipal Airport
(KCOM)

Coleman Municipal Airport Diagram
No Airport Diagram Available

FAA data valid effective July 24, 2014 until September 18, 2014 (unless otherwise noted).

 
 
 
 
 
 
 
 
 
 
 
 
 
 

Current Aviation Weather for Coleman Municipal Airport (KCOM)

The most recent METAR observation for KCOM was updated at: 0855 UTC
METAR Summary (Translated METAR)
KCOM
020855Z AUTO 18008KT 10SM CLR 26/20 A2993 RMK AO2 T02600197
KBWD
(23 nm SE from KCOM)
020855Z AUTO 16008KT 10SM SCT041 BKN050 26/20 A2992 RMK AO2
TAF Summary (Translated TAF)
KABI
(37 nm NW from KCOM)
020520Z 0206/0306 17013G19KT P6SM SKC FM021400 19015G23KT P6SM SKC FM022200 15012G19KT P6SM SCT070
  Airport Weather Conditions for KCOM

 Current Weather at COM
80° F
Fair
South winds at 10.4 mph
COM NOAA Radar

Pressure: 29.92 in
Humidity: 61%
Wind: South at 10.4 MPH (9 KT)
Dew Point: 65.1°F
Visibility: 10.00 mi


Airport Weather Forecast for KCOM

Translated METAR and TAF for KCOM
Translated METAR for KCOM (0908 UTC 02 September 2014)
found at http://aviationweather.gov/adds/metars/
 
METAR text: KCOM 020855Z AUTO 18008KT 10SM CLR 26/20 A2993 RMK AO2 T02600197
Conditions at: KCOM (COLEMAN MUNI , TX, US) observed 0855 UTC 02 September 2014
Temperature: 26.0°C (79°F)
Dewpoint: 19.7°C (67°F) [RH = 68%]
Pressure (altimeter): 29.93 inches Hg (1013.6 mb)
Winds: from the S (180 degrees) at 9 MPH (8 knots; 4.2 m/s)
Visibility: 10 or more miles (16+ km)
Ceiling: at least 12,000 feet AGL
Clouds: sky clear below 12,000 feet AGL
Weather: automated observation with no human augmentation;
there may or may not be significant weather present at this time
Translated TAF for KCOM

There is no translated TAF available for this airport

Find All Airport Services Find A Hotel Find A Rental Car Find A Golf Course Find A Restaurant $100 Hamburger



FBO's on the Field
FBO Company Facility Photos Services Transportation Aviation Fuel Prices: Prices include tax
Catering Weather Repair Courtesy Rental Type 100LL JetA JetA+ MOGAS 8087
 
Add another FBO Facility Photos Catering Weather Repair Courtesy Rental Type 100LL JetA JetA+ MOGAS 8087
Services Transportation Aviation Fuel Prices: Prices include tax
There are no FBO's currently reporting fuel at COM. List your FBO now


GlobalAir.com Airport Resource Center model-print
model-print
model-print
model-print